Airport View

Enter AWOS ICAO identifier for current METAR.

ex. KFNL

KDTN 051353Z 11007KT 10SM FEW055 FEW100 26/21 A3005 RMK AO2 SLP172 T02560206 $

5 Aug 2020 14:21

Frequency: 118.525

Phone: 318-425-7967

Other Area AWOS: KBAD - KSHV - KMNE - K3F3

TAF KBAD 051005Z 0510/0616 VRB06KT 9999 BKN090 QNH2998INS BECMG 0515/0516 12010KT 9999 VCTS BKN060CB QNH2997INS TEMPO 0518/0524 31010G15KT -TSRA OVC050CB BECMG 0600/0601 06004KT 9999 NSW BKN070 QNH2995INS BECMG 0610/0611 12010G15KT 9999 VCTS BKN040CB QNH2997INS TX32/0521Z TN20/0512Z